createdAt,value
2022-07-28T00:00:03.071Z,25.68
2022-07-28T00:00:13.184Z,25.70
2022-07-28T00:00:23.184Z,25.70
2022-07-28T00:00:33.188Z,25.71
2022-07-28T00:00:43.309Z,25.71
2022-07-28T00:00:53.452Z,25.72
2022-07-28T00:01:03.451Z,25.73
2022-07-28T00:01:13.715Z,25.72
2022-07-28T00:01:23.597Z,25.73
2022-07-28T00:01:33.782Z,25.73
2022-07-28T00:01:43.851Z,25.73
2022-07-28T00:01:53.883Z,25.72
2022-07-28T00:02:04.024Z,25.73
2022-07-28T00:02:14.023Z,25.73
2022-07-28T00:02:24.052Z,25.73
2022-07-28T00:02:34.091Z,25.74
2022-07-28T00:02:44.296Z,25.73
2022-07-28T00:02:54.378Z,25.74
2022-07-28T00:03:04.405Z,25.74
2022-07-28T00:03:14.563Z,25.75
2022-07-28T00:03:24.626Z,25.75
2022-07-28T00:03:34.669Z,25.75
2022-07-28T00:03:44.666Z,25.76
2022-07-28T00:03:54.787Z,25.76
2022-07-28T00:04:04.908Z,25.77
2022-07-28T00:04:15.333Z,25.77
2022-07-28T00:04:25.154Z,25.78
2022-07-28T00:04:35.271Z,25.78
2022-07-28T00:04:45.269Z,25.80
2022-07-28T00:04:55.523Z,25.81
2022-07-28T00:05:05.531Z,25.81
2022-07-28T00:05:15.544Z,25.81
2022-07-28T00:05:25.901Z,25.81
2022-07-28T00:05:36.021Z,25.81
2022-07-28T00:05:46.022Z,25.81
2022-07-28T00:05:56.269Z,25.82
2022-07-28T00:06:06.273Z,25.81
2022-07-28T00:06:16.278Z,25.82
2022-07-28T00:06:26.273Z,25.82
2022-07-28T00:06:36.286Z,25.82
2022-07-28T00:06:46.287Z,25.82
2022-07-28T00:06:56.418Z,25.82
2022-07-28T00:07:06.431Z,25.82
2022-07-28T00:07:16.443Z,25.83
2022-07-28T00:07:26.434Z,25.83
2022-07-28T00:07:36.704Z,25.83
2022-07-28T00:07:46.702Z,25.84
2022-07-28T00:07:56.816Z,25.84
2022-07-28T00:08:07.078Z,25.84
2022-07-28T00:08:17.077Z,25.85
2022-07-28T00:08:27.192Z,25.85
2022-07-28T00:08:37.442Z,25.85
2022-07-28T00:08:47.566Z,25.86
2022-07-28T00:08:57.683Z,25.87
2022-07-28T00:09:07.806Z,25.87
2022-07-28T00:09:17.944Z,25.87
2022-07-28T00:09:28.020Z,25.88
2022-07-28T00:09:38.147Z,25.87
2022-07-28T00:09:48.272Z,25.87
2022-07-28T00:10:00.811Z,25.87
2022-07-28T00:10:08.425Z,25.85
2022-07-28T00:10:18.414Z,25.85
2022-07-28T00:10:28.532Z,25.86
2022-07-28T00:10:38.652Z,25.86
2022-07-28T00:10:48.774Z,25.86
2022-07-28T00:10:58.886Z,25.87
2022-07-28T00:11:08.889Z,25.87
2022-07-28T00:11:19.018Z,25.88
2022-07-28T00:11:29.038Z,25.88
2022-07-28T00:11:54.236Z,25.85
2022-07-28T00:11:54.792Z,25.89
2022-07-28T00:11:59.155Z,25.82
2022-07-28T00:12:09.154Z,25.84
2022-07-28T00:12:19.300Z,25.87
2022-07-28T00:12:29.294Z,25.88
2022-07-28T00:12:39.415Z,25.89
2022-07-28T00:12:49.565Z,25.89
2022-07-28T00:12:59.433Z,25.89
2022-07-28T00:13:09.432Z,25.90
2022-07-28T00:13:19.552Z,25.91
2022-07-28T00:13:29.680Z,25.92
2022-07-28T00:13:39.795Z,25.92
2022-07-28T00:13:49.913Z,25.92
2022-07-28T00:14:00.026Z,25.91
2022-07-28T00:14:10.285Z,25.92
2022-07-28T00:14:20.361Z,25.93
2022-07-28T00:14:30.476Z,25.93
2022-07-28T00:14:40.617Z,25.94
2022-07-28T00:14:50.742Z,25.95
2022-07-28T00:15:00.868Z,25.97
2022-07-28T00:15:10.863Z,25.97
2022-07-28T00:15:21.109Z,25.97
2022-07-28T00:15:31.107Z,25.98
2022-07-28T00:15:41.231Z,25.98
2022-07-28T00:15:51.571Z,25.98
2022-07-28T00:16:01.626Z,25.98
2022-07-28T00:16:11.758Z,25.99
2022-07-28T00:16:21.968Z,25.98
2022-07-28T00:16:31.996Z,25.99
2022-07-28T00:16:42.006Z,25.98
2022-07-28T00:16:52.038Z,25.98
2022-07-28T00:17:02.053Z,25.99
2022-07-28T00:17:12.054Z,25.98
2022-07-28T00:17:22.192Z,25.98
2022-07-28T00:17:32.181Z,25.99
2022-07-28T00:17:42.299Z,25.99
2022-07-28T00:17:52.414Z,26.01
2022-07-28T00:18:02.542Z,26.02
2022-07-28T00:18:12.675Z,26.02
2022-07-28T00:18:22.667Z,26.02
2022-07-28T00:18:32.801Z,26.02
2022-07-28T00:18:42.800Z,26.03
2022-07-28T00:18:52.794Z,26.03
2022-07-28T00:19:02.793Z,26.04
2022-07-28T00:19:12.915Z,26.05
2022-07-28T00:19:22.917Z,26.05
2022-07-28T00:19:32.909Z,26.05
2022-07-28T00:19:42.915Z,26.06
2022-07-28T00:19:53.040Z,26.06
2022-07-28T00:20:03.040Z,26.06
2022-07-28T00:20:13.215Z,26.07
2022-07-28T00:20:23.215Z,26.07
2022-07-28T00:20:33.333Z,26.06
2022-07-28T00:20:43.582Z,26.07
2022-07-28T00:20:53.585Z,26.07
2022-07-28T00:21:03.706Z,26.07
2022-07-28T00:21:13.962Z,26.07
2022-07-28T00:21:24.074Z,26.07
2022-07-28T00:21:34.069Z,26.07
2022-07-28T00:21:44.331Z,26.08
2022-07-28T00:21:54.327Z,26.07
2022-07-28T00:22:04.449Z,26.07
2022-07-28T00:22:14.698Z,26.07
2022-07-28T00:22:24.698Z,26.08
2022-07-28T00:22:34.827Z,26.08
2022-07-28T00:22:45.075Z,26.07
2022-07-28T00:22:55.203Z,26.06
2022-07-28T00:23:05.197Z,26.06
2022-07-28T00:23:15.444Z,26.07
2022-07-28T00:23:38.799Z,26.00
2022-07-28T00:23:39.114Z,26.07
2022-07-28T00:23:45.710Z,25.97
2022-07-28T00:23:55.836Z,26.00
2022-07-28T00:24:05.833Z,26.01
2022-07-28T00:24:16.544Z,26.02
2022-07-28T00:24:25.979Z,26.01
2022-07-28T00:24:35.976Z,26.03
2022-07-28T00:24:46.090Z,26.02
2022-07-28T00:24:56.169Z,26.00
2022-07-28T00:25:06.283Z,26.00
2022-07-28T00:25:16.401Z,26.01
2022-07-28T00:25:26.400Z,26.01
2022-07-28T00:25:36.529Z,26.01
2022-07-28T00:25:46.647Z,26.02
2022-07-28T00:25:56.762Z,26.02
2022-07-28T00:26:06.880Z,26.01
2022-07-28T00:26:16.992Z,26.02
2022-07-28T00:26:26.993Z,26.02
2022-07-28T00:26:37.109Z,26.02
2022-07-28T00:26:47.103Z,26.01
2022-07-28T00:26:57.234Z,26.01
2022-07-28T00:27:07.232Z,26.02
2022-07-28T00:27:19.227Z,26.01
2022-07-28T00:27:27.399Z,26.00
2022-07-28T00:27:37.518Z,25.99
2022-07-28T00:27:47.523Z,26.00
2022-07-28T00:27:57.643Z,25.99
2022-07-28T00:28:07.762Z,25.99
2022-07-28T00:28:17.878Z,25.99
2022-07-28T00:28:27.876Z,25.99
2022-07-28T00:28:37.996Z,25.99
2022-07-28T00:28:48.135Z,25.99
2022-07-28T00:28:58.254Z,26.00
2022-07-28T00:29:08.249Z,26.00
2022-07-28T00:29:18.518Z,26.00
2022-07-28T00:29:49.211Z,25.97
2022-07-28T00:29:49.770Z,26.01
2022-07-28T00:29:50.937Z,25.93
2022-07-28T00:29:58.770Z,25.94
2022-07-28T00:30:08.896Z,25.96
2022-07-28T00:30:19.202Z,25.98
2022-07-28T00:30:29.201Z,25.99
2022-07-28T00:30:39.242Z,26.00
2022-07-28T00:30:49.618Z,26.02
2022-07-28T00:31:05.422Z,26.02
2022-07-28T00:31:13.847Z,25.98
2022-07-28T00:31:20.006Z,25.95
2022-07-28T00:31:30.194Z,25.99
2022-07-28T00:31:40.195Z,26.01
2022-07-28T00:31:50.205Z,26.02
2022-07-28T00:32:00.366Z,26.04
2022-07-28T00:32:10.366Z,26.05
2022-07-28T00:32:20.638Z,26.06
2022-07-28T00:32:30.718Z,26.07
2022-07-28T00:32:40.741Z,26.07
2022-07-28T00:32:50.852Z,26.08
2022-07-28T00:33:01.100Z,26.09
2022-07-28T00:33:11.102Z,26.09
2022-07-28T00:33:21.232Z,26.08
2022-07-28T00:33:31.257Z,26.08
2022-07-28T00:33:41.379Z,26.08
2022-07-28T00:33:51.391Z,26.08
2022-07-28T00:34:01.383Z,26.08
2022-07-28T00:34:11.896Z,26.08
2022-07-28T00:34:21.600Z,26.08
2022-07-28T00:34:31.727Z,26.04
2022-07-28T00:34:41.881Z,26.05
2022-07-28T00:34:53.662Z,26.05
2022-07-28T00:35:02.359Z,26.05
2022-07-28T00:35:12.231Z,26.05
2022-07-28T00:35:29.061Z,26.05
2022-07-28T00:35:32.615Z,26.01
2022-07-28T00:35:42.679Z,26.02
2022-07-28T00:35:52.673Z,25.97
2022-07-28T00:36:02.713Z,26.00
2022-07-28T00:36:12.713Z,26.02
2022-07-28T00:36:25.619Z,26.03
2022-07-28T00:36:32.858Z,26.02
2022-07-28T00:36:42.979Z,26.02
2022-07-28T00:36:53.087Z,26.03
2022-07-28T00:37:03.196Z,26.02
2022-07-28T00:37:14.847Z,26.00
2022-07-28T00:37:23.431Z,26.01
2022-07-28T00:37:33.543Z,26.01
2022-07-28T00:37:43.668Z,26.02
2022-07-28T00:37:53.706Z,26.03
2022-07-28T00:38:04.002Z,26.03
2022-07-28T00:38:14.008Z,26.03
2022-07-28T00:38:24.098Z,26.04
2022-07-28T00:38:34.097Z,26.05
2022-07-28T00:38:45.874Z,26.05
2022-07-28T00:38:54.180Z,26.00
2022-07-28T00:39:04.570Z,26.03
2022-07-28T00:39:14.557Z,26.05
2022-07-28T00:39:24.678Z,26.06
2022-07-28T00:39:34.934Z,26.07
2022-07-28T00:39:45.050Z,26.08
2022-07-28T00:39:55.162Z,26.08
2022-07-28T00:40:05.292Z,26.09
2022-07-28T00:40:15.293Z,26.10
2022-07-28T00:40:25.417Z,26.11
2022-07-28T00:40:35.665Z,26.10
2022-07-28T00:40:45.790Z,26.10
2022-07-28T00:40:55.778Z,26.11
2022-07-28T00:41:06.023Z,26.11
2022-07-28T00:41:16.036Z,26.12
2022-07-28T00:41:26.042Z,26.12
2022-07-28T00:41:36.036Z,26.13
2022-07-28T00:41:46.156Z,26.15
2022-07-28T00:41:56.156Z,26.15
2022-07-28T00:42:06.274Z,26.15
2022-07-28T00:42:16.283Z,26.16
2022-07-28T00:42:26.282Z,26.16
2022-07-28T00:42:36.403Z,26.16
2022-07-28T00:42:46.405Z,26.16
2022-07-28T00:42:56.403Z,26.16
2022-07-28T00:43:06.521Z,26.17
2022-07-28T00:43:16.768Z,26.16
2022-07-28T00:43:26.882Z,26.16
2022-07-28T00:43:36.998Z,26.17
2022-07-28T00:43:47.120Z,26.17
2022-07-28T00:43:57.124Z,26.18
2022-07-28T00:44:07.130Z,26.18
2022-07-28T00:44:17.358Z,26.17
2022-07-28T00:44:27.136Z,26.17
2022-07-28T00:44:37.253Z,26.18
2022-07-28T00:44:47.373Z,26.18
2022-07-28T00:44:57.511Z,26.19
2022-07-28T00:45:07.513Z,26.18
2022-07-28T00:45:17.510Z,26.20
2022-07-28T00:45:27.890Z,26.20
2022-07-28T00:45:37.948Z,26.20
2022-07-28T00:45:47.959Z,26.21
2022-07-28T00:45:57.942Z,26.22
2022-07-28T00:46:07.970Z,26.23
2022-07-28T00:46:18.087Z,26.23
2022-07-28T00:46:28.182Z,26.24
2022-07-28T00:46:38.254Z,26.24
2022-07-28T00:46:48.361Z,26.25
2022-07-28T00:46:58.415Z,26.26
2022-07-28T00:47:08.682Z,26.26
2022-07-28T00:47:18.675Z,26.27
2022-07-28T00:47:33.783Z,26.27
2022-07-28T00:47:38.914Z,26.22
2022-07-28T00:47:49.041Z,26.24
2022-07-28T00:47:59.153Z,26.25
2022-07-28T00:48:09.265Z,26.26
2022-07-28T00:48:19.262Z,26.26
2022-07-28T00:48:29.386Z,26.26
2022-07-28T00:48:39.595Z,26.27
2022-07-28T00:48:49.602Z,26.27
2022-07-28T00:48:59.677Z,26.27
2022-07-28T00:49:09.746Z,26.27
2022-07-28T00:49:19.807Z,26.28
2022-07-28T00:49:30.059Z,26.29
2022-07-28T00:49:40.195Z,26.28
2022-07-28T00:49:50.175Z,26.29
2022-07-28T00:50:00.175Z,26.28
2022-07-28T00:50:10.292Z,26.28
2022-07-28T00:50:20.408Z,26.29
2022-07-28T00:50:30.522Z,26.29
2022-07-28T00:50:40.647Z,26.29
2022-07-28T00:50:50.771Z,26.29
2022-07-28T00:51:00.761Z,26.28
2022-07-28T00:51:10.878Z,26.28
2022-07-28T00:51:20.998Z,26.28
2022-07-28T00:51:31.115Z,26.28
2022-07-28T00:51:41.113Z,26.28
2022-07-28T00:51:51.227Z,26.27
2022-07-28T00:52:01.348Z,26.27
2022-07-28T00:52:11.481Z,26.27
2022-07-28T00:52:21.470Z,26.26
2022-07-28T00:52:31.589Z,26.26
2022-07-28T00:52:41.848Z,26.26
2022-07-28T00:52:51.964Z,26.25
2022-07-28T00:53:02.080Z,26.24
2022-07-28T00:53:12.221Z,26.24
2022-07-28T00:53:22.240Z,26.23
2022-07-28T00:53:32.281Z,26.22
2022-07-28T00:53:42.273Z,26.22
2022-07-28T00:53:52.403Z,26.21
2022-07-28T00:54:02.402Z,26.21
2022-07-28T00:54:12.788Z,26.20
2022-07-28T00:54:22.638Z,26.20
2022-07-28T00:54:32.751Z,26.20
2022-07-28T00:54:42.751Z,26.19
2022-07-28T00:54:52.876Z,26.19
2022-07-28T00:55:03.007Z,26.20
2022-07-28T00:55:13.006Z,26.19
2022-07-28T00:55:23.255Z,26.20
2022-07-28T00:55:33.371Z,26.20
2022-07-28T00:56:03.700Z,26.13
2022-07-28T00:56:05.717Z,26.09
2022-07-28T00:56:06.220Z,26.07
2022-07-28T00:56:13.707Z,26.08
2022-07-28T00:56:23.701Z,26.10
2022-07-28T00:56:33.821Z,26.12
2022-07-28T00:56:43.822Z,26.14
2022-07-28T00:56:53.939Z,26.15
2022-07-28T00:57:03.951Z,26.17
2022-07-28T00:57:14.060Z,26.16
2022-07-28T00:57:24.140Z,26.17
2022-07-28T00:57:34.256Z,26.17
2022-07-28T00:57:44.521Z,26.19
2022-07-28T00:57:54.634Z,26.19
2022-07-28T00:58:04.763Z,26.21
2022-07-28T00:58:14.877Z,26.22
2022-07-28T00:58:24.876Z,26.23
2022-07-28T00:58:34.989Z,26.24
2022-07-28T00:58:45.245Z,26.25
2022-07-28T00:58:55.370Z,26.26
2022-07-28T00:59:05.493Z,26.26
2022-07-28T00:59:15.616Z,26.28
2022-07-28T00:59:25.610Z,26.28
2022-07-28T00:59:35.728Z,26.28
2022-07-28T00:59:45.985Z,26.29
2022-07-28T00:59:56.110Z,26.29
2022-07-28T01:00:06.228Z,26.29
2022-07-28T01:00:16.362Z,26.29
2022-07-28T01:00:26.372Z,26.29
2022-07-28T01:00:36.357Z,26.29
2022-07-28T01:00:46.727Z,26.28
2022-07-28T01:00:56.859Z,26.29
2022-07-28T01:01:06.858Z,26.29
2022-07-28T01:01:17.154Z,26.29
2022-07-28T01:01:27.212Z,26.29
2022-07-28T01:01:37.475Z,26.28
2022-07-28T01:01:47.383Z,26.28
2022-07-28T01:01:57.412Z,26.28
2022-07-28T01:02:07.483Z,26.27
2022-07-28T01:02:17.501Z,26.26
2022-07-28T01:02:27.724Z,26.26
2022-07-28T01:02:37.783Z,26.26
2022-07-28T01:02:47.865Z,26.26
2022-07-28T01:02:57.980Z,26.26
2022-07-28T01:03:07.848Z,26.24
2022-07-28T01:03:18.003Z,26.25
2022-07-28T01:03:27.938Z,26.25
2022-07-28T01:03:38.051Z,26.25
2022-07-28T01:03:48.050Z,26.25
2022-07-28T01:03:58.178Z,26.26
2022-07-28T01:04:08.426Z,26.27
2022-07-28T01:04:18.546Z,26.27
2022-07-28T01:04:28.670Z,26.28
2022-07-28T01:04:38.796Z,26.28
2022-07-28T01:04:48.796Z,26.29
2022-07-28T01:04:58.913Z,26.28
2022-07-28T01:05:09.170Z,26.28
2022-07-28T01:05:43.624Z,26.29
2022-07-28T01:05:43.769Z,26.20
2022-07-28T01:05:43.980Z,26.24
2022-07-28T01:05:49.618Z,26.18
2022-07-28T01:05:59.995Z,26.22
2022-07-28T01:06:10.110Z,26.24
2022-07-28T01:06:20.226Z,26.24
2022-07-28T01:06:30.344Z,26.25
2022-07-28T01:06:40.458Z,26.26
2022-07-28T01:06:50.587Z,26.26
2022-07-28T01:07:00.647Z,26.25
2022-07-28T01:07:10.775Z,26.25
2022-07-28T01:07:20.894Z,26.25
2022-07-28T01:07:31.009Z,26.24
2022-07-28T01:07:41.130Z,26.25
2022-07-28T01:07:51.254Z,26.24
2022-07-28T01:08:01.252Z,26.25
2022-07-28T01:08:11.297Z,26.24
2022-07-28T01:08:21.291Z,26.24
2022-07-28T01:08:31.417Z,26.23
2022-07-28T01:08:41.413Z,26.24
2022-07-28T01:08:51.539Z,26.25
2022-07-28T01:09:01.572Z,26.24
2022-07-28T01:09:11.569Z,26.23
2022-07-28T01:09:21.628Z,26.23
2022-07-28T01:09:31.878Z,26.23
2022-07-28T01:09:41.996Z,26.24
2022-07-28T01:09:52.126Z,26.26
2022-07-28T01:10:02.241Z,26.26
2022-07-28T01:10:12.366Z,26.28
2022-07-28T01:10:22.473Z,26.28
2022-07-28T01:10:32.540Z,26.27
2022-07-28T01:10:42.593Z,26.28
2022-07-28T01:10:52.717Z,26.30
2022-07-28T01:11:02.833Z,26.31
2022-07-28T01:11:12.955Z,26.31
2022-07-28T01:11:22.963Z,26.33
2022-07-28T01:11:42.622Z,26.33
2022-07-28T01:11:43.415Z,26.28
2022-07-28T01:11:53.264Z,26.31
2022-07-28T01:12:03.267Z,26.33
2022-07-28T01:12:13.388Z,26.33
2022-07-28T01:12:23.389Z,26.34
2022-07-28T01:12:33.387Z,26.35
2022-07-28T01:12:43.505Z,26.36
2022-07-28T01:12:53.624Z,26.37
2022-07-28T01:13:03.617Z,26.37
2022-07-28T01:13:13.739Z,26.38
2022-07-28T01:13:23.735Z,26.38
2022-07-28T01:13:33.986Z,26.38
2022-07-28T01:13:44.026Z,26.37
2022-07-28T01:13:53.989Z,26.38
2022-07-28T01:14:03.987Z,26.38
2022-07-28T01:14:14.533Z,26.38
2022-07-28T01:14:24.192Z,26.37
2022-07-28T01:14:34.194Z,26.37
2022-07-28T01:14:44.311Z,26.37
2022-07-28T01:14:54.432Z,26.38
2022-07-28T01:15:04.425Z,26.38
2022-07-28T01:15:14.568Z,26.38
2022-07-28T01:15:24.662Z,26.38
2022-07-28T01:15:34.782Z,26.37
2022-07-28T01:15:44.858Z,26.37
2022-07-28T01:15:54.904Z,26.38
2022-07-28T01:16:05.038Z,26.38
2022-07-28T01:16:14.971Z,26.38
2022-07-28T01:16:25.085Z,26.34
2022-07-28T01:16:35.161Z,26.34
2022-07-28T01:16:45.160Z,26.34
2022-07-28T01:16:55.286Z,26.35
2022-07-28T01:17:05.407Z,26.35
2022-07-28T01:17:15.521Z,26.34
2022-07-28T01:17:25.649Z,26.35
2022-07-28T01:17:35.765Z,26.35
2022-07-28T01:17:45.881Z,26.34
2022-07-28T01:17:56.010Z,26.35
2022-07-28T01:18:06.018Z,26.34
2022-07-28T01:18:16.135Z,26.35
2022-07-28T01:18:26.399Z,26.35
2022-07-28T01:18:36.505Z,26.35
2022-07-28T01:18:46.623Z,26.36
2022-07-28T01:18:56.750Z,26.37
2022-07-28T01:19:06.748Z,26.37
2022-07-28T01:19:16.863Z,26.37
2022-07-28T01:19:27.111Z,26.38
2022-07-28T01:19:37.115Z,26.38
2022-07-28T01:19:47.111Z,26.39
2022-07-28T01:19:57.498Z,26.39
2022-07-28T01:20:07.487Z,26.41
2022-07-28T01:20:17.614Z,26.41
2022-07-28T01:20:27.848Z,26.42
2022-07-28T01:20:37.964Z,26.43
2022-07-28T01:20:48.064Z,26.43
2022-07-28T01:20:58.288Z,26.45
2022-07-28T01:21:08.416Z,26.45
2022-07-28T01:21:18.410Z,26.46
2022-07-28T01:21:28.676Z,26.47
2022-07-28T01:21:38.791Z,26.47
2022-07-28T01:21:48.908Z,26.48
2022-07-28T01:21:59.032Z,26.48
2022-07-28T01:22:09.049Z,26.48
2022-07-28T01:22:19.041Z,26.49
2022-07-28T01:22:29.418Z,26.49
2022-07-28T01:22:39.419Z,26.49
2022-07-28T01:22:49.418Z,26.50
2022-07-28T01:22:59.796Z,26.49
2022-07-28T01:23:09.912Z,26.50
2022-07-28T01:23:20.028Z,26.50
2022-07-28T01:23:30.139Z,26.48
2022-07-28T01:23:40.135Z,26.48
2022-07-28T01:23:50.256Z,26.48
2022-07-28T01:24:00.379Z,26.48
2022-07-28T01:24:10.822Z,26.48
2022-07-28T01:24:20.408Z,26.47
2022-07-28T01:24:30.412Z,26.47
2022-07-28T01:24:40.539Z,26.46
2022-07-28T01:24:50.659Z,26.46
2022-07-28T01:25:00.781Z,26.45
2022-07-28T01:25:10.928Z,26.45
2022-07-28T01:25:20.916Z,26.44
2022-07-28T01:25:31.032Z,26.43
2022-07-28T01:25:41.298Z,26.42
2022-07-28T01:25:51.296Z,26.37
2022-07-28T01:26:01.413Z,26.39
2022-07-28T01:26:11.532Z,26.38
2022-07-28T01:26:21.656Z,26.38
2022-07-28T01:26:31.648Z,26.39
2022-07-28T01:26:41.770Z,26.39
2022-07-28T01:26:51.880Z,26.38
2022-07-28T01:27:02.006Z,26.39
2022-07-28T01:27:11.995Z,26.40
2022-07-28T01:27:22.123Z,26.41
2022-07-28T01:27:32.235Z,26.41
2022-07-28T01:27:42.359Z,26.40
2022-07-28T01:27:52.355Z,26.41
2022-07-28T01:28:02.476Z,26.41
2022-07-28T01:28:12.593Z,26.41
2022-07-28T01:28:22.713Z,26.43
2022-07-28T01:28:32.846Z,26.42
2022-07-28T01:28:42.975Z,26.42
2022-07-28T01:28:52.974Z,26.42
2022-07-28T01:29:03.099Z,26.42
2022-07-28T01:29:13.228Z,26.43
2022-07-28T01:29:23.355Z,26.42
2022-07-28T01:29:33.356Z,26.42
2022-07-28T01:29:43.605Z,26.41
2022-07-28T01:29:53.730Z,26.41
2022-07-28T01:30:03.849Z,26.40
2022-07-28T01:30:13.968Z,26.40
2022-07-28T01:30:26.193Z,26.40
2022-07-28T01:30:34.089Z,26.35
2022-07-28T01:30:44.286Z,26.36
2022-07-28T01:30:54.322Z,26.36
2022-07-28T01:31:04.385Z,26.36
2022-07-28T01:31:14.498Z,26.36
2022-07-28T01:31:24.571Z,26.35
2022-07-28T01:31:34.696Z,26.37
2022-07-28T01:31:44.845Z,26.35
2022-07-28T01:31:54.719Z,26.35
2022-07-28T01:32:04.844Z,26.37
2022-07-28T01:32:14.837Z,26.36
2022-07-28T01:32:24.987Z,26.37
2022-07-28T01:32:34.978Z,26.38
2022-07-28T01:32:45.094Z,26.38
2022-07-28T01:32:55.308Z,26.39
2022-07-28T01:33:05.304Z,26.39
2022-07-28T01:33:15.302Z,26.41
2022-07-28T01:33:25.676Z,26.39
2022-07-28T01:33:35.670Z,26.41
2022-07-28T01:33:45.791Z,26.40
2022-07-28T01:33:56.045Z,26.40
2022-07-28T01:34:06.186Z,26.40
2022-07-28T01:34:16.595Z,26.40
2022-07-28T01:34:26.413Z,26.39
2022-07-28T01:34:36.406Z,26.38
2022-07-28T01:34:46.527Z,26.38
2022-07-28T01:34:56.770Z,26.37
2022-07-28T01:35:06.908Z,26.35
2022-07-28T01:35:16.912Z,26.34
2022-07-28T01:35:27.174Z,26.33
2022-07-28T01:35:37.210Z,26.31
2022-07-28T01:35:47.176Z,26.31
2022-07-28T01:35:57.546Z,26.30
2022-07-28T01:36:07.665Z,26.29
2022-07-28T01:36:17.672Z,26.29
2022-07-28T01:36:27.923Z,26.27
2022-07-28T01:36:37.925Z,26.26
2022-07-28T01:36:48.043Z,26.25
2022-07-28T01:36:58.291Z,26.24
2022-07-28T01:37:08.299Z,26.23
2022-07-28T01:37:18.299Z,26.23
2022-07-28T01:37:28.681Z,26.23
2022-07-28T01:37:38.678Z,26.23
2022-07-28T01:37:48.798Z,26.23
2022-07-28T01:37:59.053Z,26.24
2022-07-28T01:38:09.170Z,26.24
2022-07-28T01:38:19.288Z,26.24
2022-07-28T01:38:29.426Z,26.25
2022-07-28T01:38:39.424Z,26.26
2022-07-28T01:38:49.543Z,26.27
2022-07-28T01:38:59.788Z,26.29
2022-07-28T01:39:09.906Z,26.28
2022-07-28T01:39:20.027Z,26.29
2022-07-28T01:39:30.154Z,26.30
2022-07-28T01:39:40.268Z,26.30
2022-07-28T01:39:50.394Z,26.30
2022-07-28T01:40:00.521Z,26.30
2022-07-28T01:40:10.654Z,26.30
2022-07-28T01:40:20.683Z,26.29
2022-07-28T01:40:30.922Z,26.29
2022-07-28T01:40:40.923Z,26.28
2022-07-28T01:40:51.048Z,26.28
2022-07-28T01:41:01.319Z,26.28
2022-07-28T01:41:11.406Z,26.27
2022-07-28T01:41:21.490Z,26.28
2022-07-28T01:41:31.815Z,26.27
2022-07-28T01:41:41.869Z,26.26
2022-07-28T01:41:51.916Z,26.27
2022-07-28T01:42:01.926Z,26.27
2022-07-28T01:42:11.922Z,26.27
2022-07-28T01:42:21.920Z,26.26
2022-07-28T01:42:32.040Z,26.26
2022-07-28T01:42:42.050Z,26.26
2022-07-28T01:42:52.054Z,26.28
2022-07-28T01:43:02.039Z,26.28
2022-07-28T01:43:13.205Z,26.28
2022-07-28T01:43:22.373Z,26.27
2022-07-28T01:43:32.373Z,26.27
2022-07-28T01:43:42.373Z,26.28
2022-07-28T01:43:52.504Z,26.29
2022-07-28T01:44:02.494Z,26.29
2022-07-28T01:44:12.926Z,26.30
2022-07-28T01:44:22.664Z,26.29
2022-07-28T01:44:32.782Z,26.29
2022-07-28T01:44:42.898Z,26.30
2022-07-28T01:44:53.027Z,26.30
2022-07-28T01:45:03.148Z,26.30
2022-07-28T01:45:13.270Z,26.30
2022-07-28T01:45:23.402Z,26.30
2022-07-28T01:45:33.399Z,26.30
2022-07-28T01:45:43.544Z,26.29
2022-07-28T01:45:54.017Z,26.30
2022-07-28T01:46:03.963Z,26.29
2022-07-28T01:46:13.915Z,26.30
2022-07-28T01:46:23.960Z,26.29
2022-07-28T01:46:34.046Z,26.29
2022-07-28T01:46:44.225Z,26.29
2022-07-28T01:46:54.246Z,26.30
2022-07-28T01:47:04.134Z,26.30
2022-07-28T01:47:14.251Z,26.31
2022-07-28T01:47:24.502Z,26.31
2022-07-28T01:47:34.404Z,26.33
2022-07-28T01:47:44.404Z,26.33
2022-07-28T01:47:54.517Z,26.33
2022-07-28T01:48:04.764Z,26.32
2022-07-28T01:48:14.881Z,26.33
2022-07-28T01:48:24.997Z,26.33
2022-07-28T01:48:35.175Z,26.34
2022-07-28T01:48:45.241Z,26.33
2022-07-28T01:48:55.338Z,26.34
2022-07-28T01:49:05.368Z,26.34
2022-07-28T01:49:15.527Z,26.33
2022-07-28T01:49:25.503Z,26.34
2022-07-28T01:49:35.552Z,26.33
2022-07-28T01:49:45.548Z,26.33
2022-07-28T01:49:55.548Z,26.32
2022-07-28T01:50:05.673Z,26.31
2022-07-28T01:50:15.929Z,26.30
2022-07-28T01:50:26.047Z,26.31
2022-07-28T01:50:36.186Z,26.31
2022-07-28T01:50:46.309Z,26.31
2022-07-28T01:50:56.434Z,26.31
2022-07-28T01:51:06.434Z,26.31
2022-07-28T01:51:16.690Z,26.31
2022-07-28T01:51:26.818Z,26.31
2022-07-28T01:51:36.818Z,26.32
2022-07-28T01:51:47.071Z,26.32
2022-07-28T01:51:57.194Z,26.32
2022-07-28T01:52:07.188Z,26.33
2022-07-28T01:52:17.439Z,26.33
2022-07-28T01:52:27.572Z,26.33
2022-07-28T01:52:37.568Z,26.34
2022-07-28T01:52:47.817Z,26.34
2022-07-28T01:52:57.822Z,26.33
2022-07-28T01:53:07.944Z,26.34
2022-07-28T01:53:18.196Z,26.35
2022-07-28T01:53:28.311Z,26.36
2022-07-28T01:53:38.392Z,26.36
2022-07-28T01:53:48.634Z,26.35
2022-07-28T01:53:58.636Z,26.35
2022-07-28T01:54:08.751Z,26.35
2022-07-28T01:54:19.009Z,26.36
2022-07-28T01:54:29.130Z,26.36
2022-07-28T01:54:39.271Z,26.37
2022-07-28T01:54:49.400Z,26.38
2022-07-28T01:54:59.410Z,26.37
2022-07-28T01:55:09.411Z,26.38
2022-07-28T01:55:19.430Z,26.38
2022-07-28T01:55:29.437Z,26.39
2022-07-28T01:55:39.430Z,26.38
2022-07-28T01:55:49.548Z,26.39
2022-07-28T01:55:59.549Z,26.39
2022-07-28T01:56:09.669Z,26.39
2022-07-28T01:56:19.787Z,26.39
2022-07-28T01:56:29.912Z,26.39
2022-07-28T01:56:40.034Z,26.38
2022-07-28T01:56:50.050Z,26.39
2022-07-28T01:57:00.171Z,26.38
2022-07-28T01:57:10.291Z,26.38
2022-07-28T01:57:20.409Z,26.37
2022-07-28T01:57:30.549Z,26.37
2022-07-28T01:57:40.543Z,26.36
2022-07-28T01:57:50.556Z,26.36
2022-07-28T01:58:00.551Z,26.35
2022-07-28T01:58:10.674Z,26.35
2022-07-28T01:58:20.798Z,26.35
2022-07-28T01:58:30.803Z,26.34
2022-07-28T01:58:40.800Z,26.34
2022-07-28T01:58:50.917Z,26.32
2022-07-28T01:59:01.035Z,26.32
2022-07-28T01:59:11.040Z,26.31
2022-07-28T01:59:21.040Z,26.31
2022-07-28T01:59:31.797Z,26.30
2022-07-28T01:59:41.162Z,26.29
2022-07-28T01:59:51.288Z,26.29
2022-07-28T02:00:01.285Z,26.28
2022-07-28T02:00:11.421Z,26.29
2022-07-28T02:00:21.437Z,26.28
2022-07-28T02:00:31.462Z,26.28
2022-07-28T02:00:41.578Z,26.29
2022-07-28T02:00:51.703Z,26.28
2022-07-28T02:01:01.761Z,26.29
2022-07-28T02:01:11.929Z,26.29
2022-07-28T02:01:22.122Z,26.29
2022-07-28T02:01:32.194Z,26.30
2022-07-28T02:01:42.334Z,26.30
2022-07-28T02:01:52.554Z,26.29
2022-07-28T02:02:02.627Z,26.30
2022-07-28T02:02:12.649Z,26.30
2022-07-28T02:02:23.033Z,26.30
2022-07-28T02:02:33.148Z,26.30
2022-07-28T02:02:43.268Z,26.30
2022-07-28T02:02:53.401Z,26.30
2022-07-28T02:03:03.425Z,26.30
2022-07-28T02:03:13.418Z,26.31
2022-07-28T02:03:23.793Z,26.31
2022-07-28T02:03:33.915Z,26.31
2022-07-28T02:03:44.041Z,26.31
2022-07-28T02:03:54.188Z,26.31
2022-07-28T02:04:04.186Z,26.32
2022-07-28T02:04:14.702Z,26.32
2022-07-28T02:04:24.574Z,26.32
2022-07-28T02:04:34.786Z,26.32
2022-07-28T02:04:44.811Z,26.32
2022-07-28T02:04:55.155Z,26.33
2022-07-28T02:05:05.254Z,26.33
2022-07-28T02:05:15.409Z,26.33
2022-07-28T02:05:25.570Z,26.33
2022-07-28T02:05:35.712Z,26.33
2022-07-28T02:05:45.602Z,26.34
2022-07-28T02:05:55.610Z,26.34
2022-07-28T02:06:05.610Z,26.34
2022-07-28T02:06:15.731Z,26.34
2022-07-28T02:06:25.734Z,26.34
2022-07-28T02:06:35.854Z,26.34
2022-07-28T02:06:45.854Z,26.34
2022-07-28T02:06:55.974Z,26.34
2022-07-28T02:07:05.978Z,26.34
2022-07-28T02:07:16.101Z,26.33
2022-07-28T02:07:26.105Z,26.33
2022-07-28T02:07:36.374Z,26.33
2022-07-28T02:07:46.376Z,26.32
2022-07-28T02:07:56.502Z,26.34
2022-07-28T02:08:06.760Z,26.33
2022-07-28T02:08:16.759Z,26.34
2022-07-28T02:08:26.779Z,26.34
2022-07-28T02:08:36.776Z,26.34
2022-07-28T02:08:46.906Z,26.35
2022-07-28T02:08:56.909Z,26.36
2022-07-28T02:09:07.023Z,26.36
2022-07-28T02:09:17.149Z,26.37
2022-07-28T02:09:27.150Z,26.37
2022-07-28T02:09:37.266Z,26.38
2022-07-28T02:09:47.395Z,26.39
2022-07-28T02:09:57.432Z,26.40